Time;durP1;ratioP1;P1;durP2;ratioP2;P2;SDS_P1;SDS_P2;PMS_P1;PMS_P2;Temp;Humidity;BMP_temperature;BMP_pressure;BME280_temperature;BME280_humidity;BME280_pressure;Samples;Min_cycle;Max_cycle;Signal;HPM_P1;HPM_P2
2021/07/26 00:00:18;;;;;;;;;;;;;;;;;;1031467;28;19917;-82
2021/07/26 00:00:49;;;;;;;;;;;;;;;;;;1031387;28;20467;-83
2021/07/26 00:01:19;;;;;;;;;;;;;;;;;;1026342;28;19906;-82
2021/07/26 00:01:50;;;;;;;;;;;;;;;;;;1025967;29;20001;-82
2021/07/26 00:02:20;;;;;;;;;;;;;;;;;;1025944;28;20396;-84
2021/07/26 00:02:50;;;;;;;;;;;;;;;;;;1026085;28;19911;-82
2021/07/26 00:03:21;;;;;;;;;;;;;;;;;;1022471;29;20440;-82
2021/07/26 00:03:51;;;;;;;;;;;;;;;;;;1026029;29;19910;-82
2021/07/26 00:04:21;;;;;;;;;;;;;;;;;;1023397;29;20009;-82
2021/07/26 00:04:51;;;;;;;;;;;;;;;;;;1019397;29;19953;-83
2021/07/26 00:05:21;;;;;;;;;;;;;;;;;;1014510;29;19911;-79
2021/07/26 00:05:55;;;;;;;;;;;;;;;;;;1013310;29;20337;-78
2021/07/26 00:06:25;;;;;;;;;;;;;;;;;;1020064;28;19922;-77
2021/07/26 00:06:55;;;;;;;;;;;;;;;;;;1025468;28;19978;-77
2021/07/26 00:07:26;;;;;;;;;;;;;;;;;;1034567;28;19916;-80
2021/07/26 00:07:57;;;;;;;;;;;;;;;;;;1031765;28;19938;-82
2021/07/26 00:08:27;;;;;;;;;;;;;;;;;;1028236;28;19911;-82
2021/07/26 00:08:58;;;;;;;;;;;;;;;;;;1027308;28;19930;-82
2021/07/26 00:09:28;;;;;;;;;;;;;;;;;;1019677;29;19907;-81
2021/07/26 00:09:59;;;;;;;;;;;;;;;;;;1025806;29;19945;-81
2021/07/26 00:10:30;;;;;;;;;;;;;;;;;;1024032;29;19910;-81
2021/07/26 00:11:01;;;;;;;;;;;;;;;;;;1023566;29;20051;-82
2021/07/26 00:11:32;;;;;;;;;;;;;;;;;;1027773;29;19906;-82
2021/07/26 00:12:02;;;;;;;;;;;;;;;;;;1028373;28;19922;-82
2021/07/26 00:12:33;;;;;;;;;;;;;;;;;;1027626;28;19910;-82
2021/07/26 00:13:05;;;;;;;;;;;;;;;;;;1028711;28;19975;-81
2021/07/26 00:13:38;;;;;;;;;;;;;;;;;;1027875;28;20050;-82
2021/07/26 00:14:09;;;;;;;;;;;;;;;;;;1032520;28;19910;-82
2021/07/26 00:14:42;;;;;;;;;;;;;;;;;;1030184;28;19910;-82
2021/07/26 00:15:20;;;;;;;;;;;;;;;;;;1019148;29;19915;-82
2021/07/26 00:15:59;;;;;;;;;;;;;;;;;;1018366;29;19912;-81
2021/07/26 00:16:31;;;;;;;;;;;;;;;;;;1021459;29;19918;-81
2021/07/26 00:17:04;;;;;;;;;;;;;;;;;;1022640;29;19911;-81
2021/07/26 00:17:35;;;;;;;;;;;;;;;;;;1015903;29;20323;-81
2021/07/26 00:18:06;;;;;;;;;;;;;;;;;;1019738;29;19912;-81
2021/07/26 00:18:36;;;;;;;;;;;;;;;;;;1027262;28;19966;-81
2021/07/26 00:19:06;;;;;;;;;;;;;;;;;;1026386;29;19929;-82
2021/07/26 00:19:37;;;;;;;;;;;;;;;;;;1019648;29;19919;-81
2021/07/26 00:20:10;;;;;;;;;;;;;;;;;;1016724;29;19919;-81
2021/07/26 00:20:40;;;;;;;;;;;;;;;;;;1019959;29;19911;-82
2021/07/26 00:21:10;;;;;;;;;;;;;;;;;;1017796;29;19912;-81
2021/07/26 00:21:41;;;;;;;;;;;;;;;;;;1019000;29;19911;-82
2021/07/26 00:22:11;;;;;;;;;;;;;;;;;;1017619;29;19912;-84
2021/07/26 00:22:43;;;;;;;;;;;;;;;;;;1017931;29;19912;-82
2021/07/26 00:23:13;;;;;;;;;;;;;;;;;;1017954;29;19924;-83
2021/07/26 00:23:43;;;;;;;;;;;;;;;;;;1021799;29;19927;-82
2021/07/26 00:24:14;;;;;;;;;;;;;;;;;;1021673;29;19895;-83
2021/07/26 00:24:44;;;;;;;;;;;;;;;;;;1021640;29;19911;-84
2021/07/26 00:25:15;;;;;;;;;;;;;;;;;;1021481;29;19950;-84
2021/07/26 00:25:46;;;;;;;;;;;;;;;;;;1025111;29;19975;-83
2021/07/26 00:26:17;;;;;;;;;;;;;;;;;;1024328;29;19962;-83
2021/07/26 00:26:47;;;;;;;;;;;;;;;;;;1024717;29;19911;-84
2021/07/26 00:27:17;;;;;;;;;;;;;;;;;;1018796;29;19939;-83
2021/07/26 00:27:47;;;;;;;;;;;;;;;;;;1021898;29;19911;-85
2021/07/26 00:28:18;;;;;;;;;;;;;;;;;;1021683;29;19966;-83
2021/07/26 00:28:48;;;;;;;;;;;;;;;;;;1021924;29;20029;-86
2021/07/26 00:29:18;;;;;;;;;;;;;;;;;;1033680;28;19945;-84
2021/07/26 00:29:48;;;;;;;;;;;;;;;;;;1029572;28;19910;-85
2021/07/26 00:30:19;;;;;;;;;;;;;;;;;;1025671;28;20372;-85
2021/07/26 00:30:49;;;;;;;;;;;;;;;;;;1021557;29;19970;-85
2021/07/26 00:31:19;;;;;;;;;;;;;;;;;;1021557;29;19907;-85
2021/07/26 00:31:50;;;;;;;;;;;;;;;;;;1025562;28;20577;-85
2021/07/26 00:32:20;;;;;;;;;;;;;;;;;;1033880;28;19941;-84
2021/07/26 00:32:50;;;;;;;;;;;;;;;;;;1029532;28;19914;-86
2021/07/26 00:34:20;;;;;;;;;;;;;;;;;;1033166;28;19929;-83
2021/07/26 00:34:50;;;;;;;;;;;;;;;;;;1040520;28;19906;-85
2021/07/26 00:35:20;;;;;;;;;;;;;;;;;;1037177;28;19906;-84
2021/07/26 00:35:51;;;;;;;;;;;;;;;;;;1037401;28;19938;-85
2021/07/26 00:36:21;;;;;;;;;;;;;;;;;;1036576;28;19913;-85
2021/07/26 00:36:51;;;;;;;;;;;;;;;;;;1029339;28;19906;-86
2021/07/26 00:37:26;;;;;;;;;;;;;;;;;;1029234;28;19902;-85
2021/07/26 00:37:56;;;;;;;;;;;;;;;;;;1033533;28;19906;-87
2021/07/26 00:38:26;;;;;;;;;;;;;;;;;;1025892;28;19997;-87
2021/07/26 00:38:56;;;;;;;;;;;;;;;;;;1029028;28;19907;-85
2021/07/26 00:39:26;;;;;;;;;;;;;;;;;;1025234;28;19906;-85
2021/07/26 00:39:58;;;;;;;;;;;;;;;;;;1024959;28;19989;-87
2021/07/26 00:40:28;;;;;;;;;;;;;;;;;;1029204;28;20339;-88
2021/07/26 00:40:58;;;;;;;;;;;;;;;;;;1029050;28;19949;-87
2021/07/26 00:41:28;;;;;;;;;;;;;;;;;;1028997;28;19925;-88
2021/07/26 00:41:59;;;;;;;;;;;;;;;;;;1024888;29;19906;-86
2021/07/26 00:42:29;;;;;;;;;;;;;;;;;;1021195;29;19903;-87
2021/07/26 00:42:59;;;;;;;;;;;;;;;;;;1021600;29;19907;-85
2021/07/26 00:43:29;;;;;;;;;;;;;;;;;;1021507;29;19959;-86
2021/07/26 00:44:00;;;;;;;;;;;;;;;;;;1026049;29;19930;-86
2021/07/26 00:44:30;;;;;;;;;;;;;;;;;;1029566;28;19906;-86
2021/07/26 00:45:00;;;;;;;;;;;;;;;;;;1029195;28;19906;-88
2021/07/26 00:45:31;;;;;;;;;;;;;;;;;;1029050;28;19913;-87
2021/07/26 00:46:01;;;;;;;;;;;;;;;;;;1025393;28;20383;-88
2021/07/26 00:46:31;;;;;;;;;;;;;;;;;;1029544;28;19954;-87
2021/07/26 00:47:02;;;;;;;;;;;;;;;;;;1033749;28;20000;-85
2021/07/26 00:47:32;;;;;;;;;;;;;;;;;;1029145;28;19949;-88
2021/07/26 00:48:02;;;;;;;;;;;;;;;;;;1033222;28;19906;-87
2021/07/26 00:48:32;;;;;;;;;;;;;;;;;;1029497;28;19902;-85
2021/07/26 00:49:04;;;;;;;;;;;;;;;;;;1029729;28;19914;-86
2021/07/26 00:49:34;;;;;;;;;;;;;;;;;;1030536;28;19902;-85
2021/07/26 00:50:04;;;;;;;;;;;;;;;;;;1035418;28;20292;-84
2021/07/26 00:50:34;;;;;;;;;;;;;;;;;;1035958;28;19912;-85
2021/07/26 00:51:05;;;;;;;;;;;;;;;;;;1036069;28;19909;-84
2021/07/26 00:51:36;;;;;;;;;;;;;;;;;;1036086;28;19917;-84
2021/07/26 00:52:06;;;;;;;;;;;;;;;;;;1032129;28;19942;-84
2021/07/26 00:52:36;;;;;;;;;;;;;;;;;;1031575;28;19973;-85
2021/07/26 00:53:06;;;;;;;;;;;;;;;;;;1025974;29;19997;-87
2021/07/26 00:53:37;;;;;;;;;;;;;;;;;;1025368;29;19974;-87
2021/07/26 00:54:07;;;;;;;;;;;;;;;;;;1033435;28;20354;-87
2021/07/26 00:54:37;;;;;;;;;;;;;;;;;;1033242;28;19917;-87
2021/07/26 00:55:08;;;;;;;;;;;;;;;;;;1037128;28;19909;-86
2021/07/26 00:55:40;;;;;;;;;;;;;;;;;;1032987;28;19914;-86
2021/07/26 00:56:10;;;;;;;;;;;;;;;;;;1028605;28;19910;-86
2021/07/26 00:56:40;;;;;;;;;;;;;;;;;;1029068;28;19906;-87
2021/07/26 00:57:10;;;;;;;;;;;;;;;;;;1029331;28;19910;-87
2021/07/26 00:57:41;;;;;;;;;;;;;;;;;;1028888;28;19945;-86
2021/07/26 00:58:11;;;;;;;;;;;;;;;;;;1029157;28;19977;-87
2021/07/26 00:58:41;;;;;;;;;;;;;;;;;;1029283;28;19910;-85
2021/07/26 00:59:11;;;;;;;;;;;;;;;;;;1028695;28;19922;-86
2021/07/26 00:59:42;;;;;;;;;;;;;;;;;;1030045;28;19910;-87
2021/07/26 01:00:12;;;;;;;;;;;;;;;;;;1029284;28;19945;-86
2021/07/26 01:00:42;;;;;;;;;;;;;;;;;;1024642;29;19922;-86
2021/07/26 01:01:17;;;;;;;;;;;;;;;;;;1028752;28;19914;-86
2021/07/26 01:01:47;;;;;;;;;;;;;;;;;;1032537;28;19910;-85
2021/07/26 01:02:18;;;;;;;;;;;;;;;;;;1031941;28;19906;-85
2021/07/26 01:02:48;;;;;;;;;;;;;;;;;;1025373;28;20211;-85
2021/07/26 01:03:18;;;;;;;;;;;;;;;;;;1026027;28;19963;-85
2021/07/26 01:03:48;;;;;;;;;;;;;;;;;;1017061;29;20305;-85
2021/07/26 01:04:19;;;;;;;;;;;;;;;;;;1024961;29;19910;-86
2021/07/26 01:04:49;;;;;;;;;;;;;;;;;;1028918;28;19949;-86
2021/07/26 01:05:19;;;;;;;;;;;;;;;;;;1028418;28;20396;-85
2021/07/26 01:05:49;;;;;;;;;;;;;;;;;;1028961;28;19918;-84
2021/07/26 01:06:20;;;;;;;;;;;;;;;;;;1028825;28;20322;-86
2021/07/26 01:06:50;;;;;;;;;;;;;;;;;;1028808;28;20001;-85
2021/07/26 01:07:21;;;;;;;;;;;;;;;;;;1029044;28;20009;-86
2021/07/26 01:07:51;;;;;;;;;;;;;;;;;;1029108;28;19957;-86
2021/07/26 01:08:21;;;;;;;;;;;;;;;;;;1024983;28;19910;-86
2021/07/26 01:08:52;;;;;;;;;;;;;;;;;;1029298;28;19910;-86
2021/07/26 01:09:22;;;;;;;;;;;;;;;;;;1029300;28;19911;-85
2021/07/26 01:09:52;;;;;;;;;;;;;;;;;;1025388;28;19911;-85
2021/07/26 01:10:22;;;;;;;;;;;;;;;;;;1029732;28;19910;-84
2021/07/26 01:10:53;;;;;;;;;;;;;;;;;;1025453;29;19911;-84
2021/07/26 01:11:23;;;;;;;;;;;;;;;;;;1026453;29;20316;-83
2021/07/26 01:11:53;;;;;;;;;;;;;;;;;;1026080;29;19926;-85
2021/07/26 01:12:23;;;;;;;;;;;;;;;;;;1030629;28;20013;-83
2021/07/26 01:12:54;;;;;;;;;;;;;;;;;;1030712;28;20025;-85
2021/07/26 01:13:26;;;;;;;;;;;;;;;;;;1030698;28;19937;-84
2021/07/26 01:13:56;;;;;;;;;;;;;;;;;;1034854;28;19977;-84
2021/07/26 01:14:26;;;;;;;;;;;;;;;;;;1030277;28;19910;-84
2021/07/26 01:14:57;;;;;;;;;;;;;;;;;;1025471;29;19994;-84
2021/07/26 01:15:27;;;;;;;;;;;;;;;;;;1025808;28;19911;-85
2021/07/26 01:15:57;;;;;;;;;;;;;;;;;;1025757;28;19911;-86
2021/07/26 01:16:29;;;;;;;;;;;;;;;;;;1029723;28;19938;-84
2021/07/26 01:16:59;;;;;;;;;;;;;;;;;;1033364;28;19912;-84
2021/07/26 01:17:29;;;;;;;;;;;;;;;;;;1033574;28;19917;-86
2021/07/26 01:18:01;;;;;;;;;;;;;;;;;;1037741;28;19917;-85
2021/07/26 01:18:31;;;;;;;;;;;;;;;;;;1031396;28;19910;-86
2021/07/26 01:19:02;;;;;;;;;;;;;;;;;;1029351;28;19910;-85
2021/07/26 01:19:32;;;;;;;;;;;;;;;;;;1025780;29;19981;-85
2021/07/26 01:20:02;;;;;;;;;;;;;;;;;;1021902;29;19911;-86
2021/07/26 01:20:32;;;;;;;;;;;;;;;;;;1026235;29;20372;-85
2021/07/26 01:21:03;;;;;;;;;;;;;;;;;;1014251;29;19958;-84
2021/07/26 01:21:33;;;;;;;;;;;;;;;;;;1025734;28;19917;-85
2021/07/26 01:22:03;;;;;;;;;;;;;;;;;;1029928;28;19911;-84
2021/07/26 01:22:33;;;;;;;;;;;;;;;;;;1029789;28;20053;-85
2021/07/26 01:23:04;;;;;;;;;;;;;;;;;;1029644;28;19910;-85
2021/07/26 01:23:34;;;;;;;;;;;;;;;;;;1026155;28;19910;-85
2021/07/26 01:24:04;;;;;;;;;;;;;;;;;;1025300;29;19910;-86
2021/07/26 01:24:34;;;;;;;;;;;;;;;;;;1021438;29;20325;-84
2021/07/26 01:25:06;;;;;;;;;;;;;;;;;;1017255;29;19911;-85
2021/07/26 01:25:36;;;;;;;;;;;;;;;;;;1021317;29;19964;-87
2021/07/26 01:26:07;;;;;;;;;;;;;;;;;;1018077;29;19918;-86
2021/07/26 01:26:37;;;;;;;;;;;;;;;;;;1025707;28;19910;-85
2021/07/26 01:27:07;;;;;;;;;;;;;;;;;;1021152;29;19911;-86
2021/07/26 01:27:38;;;;;;;;;;;;;;;;;;1021000;29;20284;-85
2021/07/26 01:28:08;;;;;;;;;;;;;;;;;;1020896;29;19981;-86
2021/07/26 01:28:38;;;;;;;;;;;;;;;;;;1021344;29;19907;-87
2021/07/26 01:29:11;;;;;;;;;;;;;;;;;;1025198;29;19953;-86
2021/07/26 01:29:44;;;;;;;;;;;;;;;;;;1017832;29;19915;-85
2021/07/26 01:30:14;;;;;;;;;;;;;;;;;;1017942;29;19903;-85
2021/07/26 01:30:45;;;;;;;;;;;;;;;;;;1017233;29;19907;-85
2021/07/26 01:31:15;;;;;;;;;;;;;;;;;;1017359;29;19994;-85
2021/07/26 01:31:45;;;;;;;;;;;;;;;;;;1021075;29;19978;-84
2021/07/26 01:32:16;;;;;;;;;;;;;;;;;;1029050;28;19906;-85
2021/07/26 01:32:46;;;;;;;;;;;;;;;;;;1025081;29;19907;-85
2021/07/26 01:33:16;;;;;;;;;;;;;;;;;;1025158;28;19929;-83
2021/07/26 01:33:46;;;;;;;;;;;;;;;;;;1021305;28;19934;-85
2021/07/26 01:34:17;;;;;;;;;;;;;;;;;;1021223;29;19907;-85
2021/07/26 01:34:47;;;;;;;;;;;;;;;;;;1017210;29;19908;-83
2021/07/26 01:35:17;;;;;;;;;;;;;;;;;;1021133;29;20041;-86
2021/07/26 01:35:47;;;;;;;;;;;;;;;;;;1025055;28;20380;-83
2021/07/26 01:36:18;;;;;;;;;;;;;;;;;;1021063;29;19990;-84
2021/07/26 01:36:48;;;;;;;;;;;;;;;;;;1017408;29;20258;-83
2021/07/26 01:37:18;;;;;;;;;;;;;;;;;;1017347;29;19938;-85
2021/07/26 01:37:48;;;;;;;;;;;;;;;;;;1020656;29;20005;-85
2021/07/26 01:38:19;;;;;;;;;;;;;;;;;;1021086;29;19958;-86
2021/07/26 01:38:52;;;;;;;;;;;;;;;;;;1032798;28;19906;-85
2021/07/26 01:39:22;;;;;;;;;;;;;;;;;;1031973;28;20347;-84
2021/07/26 01:39:52;;;;;;;;;;;;;;;;;;1027317;28;19913;-84
2021/07/26 01:40:23;;;;;;;;;;;;;;;;;;1025518;29;19902;-87
2021/07/26 01:40:54;;;;;;;;;;;;;;;;;;1025414;29;19907;-84
2021/07/26 01:41:26;;;;;;;;;;;;;;;;;;1025709;28;19907;-84
2021/07/26 01:41:56;;;;;;;;;;;;;;;;;;1022777;29;19917;-84
2021/07/26 01:42:26;;;;;;;;;;;;;;;;;;1017881;29;19907;-84
2021/07/26 01:43:01;;;;;;;;;;;;;;;;;;1017747;29;19959;-84
2021/07/26 01:43:37;;;;;;;;;;;;;;;;;;1018117;29;19946;-85
2021/07/26 01:44:10;;;;;;;;;;;;;;;;;;1018335;29;20348;-84
2021/07/26 01:44:40;;;;;;;;;;;;;;;;;;1013550;29;19920;-87
2021/07/26 01:45:10;;;;;;;;;;;;;;;;;;1014404;29;19908;-83
2021/07/26 01:45:41;;;;;;;;;;;;;;;;;;1018019;29;19968;-83
2021/07/26 01:46:11;;;;;;;;;;;;;;;;;;1025218;28;19914;-84
2021/07/26 01:46:41;;;;;;;;;;;;;;;;;;1029177;28;20410;-84
2021/07/26 01:47:12;;;;;;;;;;;;;;;;;;1028946;28;19914;-83
2021/07/26 01:47:43;;;;;;;;;;;;;;;;;;1025428;29;19907;-84
2021/07/26 01:48:13;;;;;;;;;;;;;;;;;;1025206;29;19906;-85
2021/07/26 01:48:43;;;;;;;;;;;;;;;;;;1029744;28;19917;-83
2021/07/26 01:49:14;;;;;;;;;;;;;;;;;;1029580;28;19934;-86
2021/07/26 01:49:44;;;;;;;;;;;;;;;;;;1029284;28;19913;-86
2021/07/26 01:50:14;;;;;;;;;;;;;;;;;;1029250;28;19964;-86
2021/07/26 01:50:45;;;;;;;;;;;;;;;;;;1029291;28;20455;-85
2021/07/26 01:51:15;;;;;;;;;;;;;;;;;;1025603;29;19906;-86
2021/07/26 01:51:45;;;;;;;;;;;;;;;;;;1021608;29;20381;-84
2021/07/26 01:52:17;;;;;;;;;;;;;;;;;;1028221;29;19942;-88
2021/07/26 01:52:47;;;;;;;;;;;;;;;;;;1024017;29;19918;-83
2021/07/26 01:53:17;;;;;;;;;;;;;;;;;;1028594;28;19942;-85
2021/07/26 01:53:47;;;;;;;;;;;;;;;;;;1027934;28;19910;-85
2021/07/26 01:54:18;;;;;;;;;;;;;;;;;;1028403;29;19914;-85
2021/07/26 01:54:48;;;;;;;;;;;;;;;;;;1030781;28;19978;-84
2021/07/26 01:55:18;;;;;;;;;;;;;;;;;;1025748;29;19934;-84
2021/07/26 01:55:49;;;;;;;;;;;;;;;;;;1022539;29;19915;-84
2021/07/26 01:56:19;;;;;;;;;;;;;;;;;;1021916;29;20427;-84
2021/07/26 01:56:49;;;;;;;;;;;;;;;;;;1022735;29;19942;-86
2021/07/26 01:57:19;;;;;;;;;;;;;;;;;;1024051;29;19918;-85
2021/07/26 01:57:50;;;;;;;;;;;;;;;;;;1032193;28;19954;-85
2021/07/26 01:58:20;;;;;;;;;;;;;;;;;;1030964;28;19910;-86
2021/07/26 01:58:50;;;;;;;;;;;;;;;;;;1030730;28;19917;-86
2021/07/26 01:59:20;;;;;;;;;;;;;;;;;;1026927;28;19907;-85
2021/07/26 01:59:51;;;;;;;;;;;;;;;;;;1027024;28;19938;-85
2021/07/26 02:00:21;;;;;;;;;;;;;;;;;;1026395;28;20369;-86
2021/07/26 02:00:51;;;;;;;;;;;;;;;;;;1021636;29;20359;-86
2021/07/26 02:01:22;;;;;;;;;;;;;;;;;;1021695;29;19957;-86
2021/07/26 02:01:52;;;;;;;;;;;;;;;;;;1025550;28;19958;-85
2021/07/26 02:02:23;;;;;;;;;;;;;;;;;;1025346;29;19911;-87
2021/07/26 02:02:54;;;;;;;;;;;;;;;;;;1029500;28;19910;-83
2021/07/26 02:03:24;;;;;;;;;;;;;;;;;;1029188;28;19945;-84
2021/07/26 02:03:54;;;;;;;;;;;;;;;;;;1030264;28;19911;-85
2021/07/26 02:04:24;;;;;;;;;;;;;;;;;;1024322;28;19906;-85
2021/07/26 02:04:55;;;;;;;;;;;;;;;;;;1017465;29;19915;-85
2021/07/26 02:05:25;;;;;;;;;;;;;;;;;;1018573;29;19907;-86
2021/07/26 02:05:55;;;;;;;;;;;;;;;;;;1015135;29;19912;-87
2021/07/26 02:06:25;;;;;;;;;;;;;;;;;;1017895;29;19912;-86
2021/07/26 02:06:55;;;;;;;;;;;;;;;;;;1024802;29;19957;-85
2021/07/26 02:07:26;;;;;;;;;;;;;;;;;;1029143;28;19932;-85
2021/07/26 02:07:56;;;;;;;;;;;;;;;;;;1029387;28;19957;-87
2021/07/26 02:08:26;;;;;;;;;;;;;;;;;;1028921;28;19910;-86
2021/07/26 02:08:57;;;;;;;;;;;;;;;;;;1025375;29;19978;-85
2021/07/26 02:09:27;;;;;;;;;;;;;;;;;;1025677;28;19910;-87
2021/07/26 02:09:57;;;;;;;;;;;;;;;;;;1026091;28;20005;-86
2021/07/26 02:10:27;;;;;;;;;;;;;;;;;;1026060;29;19911;-84
2021/07/26 02:10:58;;;;;;;;;;;;;;;;;;1025520;28;19930;-87
2021/07/26 02:11:28;;;;;;;;;;;;;;;;;;1029496;28;19934;-87
2021/07/26 02:11:58;;;;;;;;;;;;;;;;;;1029529;28;19922;-87
2021/07/26 02:12:28;;;;;;;;;;;;;;;;;;1029535;28;20351;-85
2021/07/26 02:12:59;;;;;;;;;;;;;;;;;;1028626;28;20009;-86
2021/07/26 02:13:29;;;;;;;;;;;;;;;;;;1024816;29;19974;-84
2021/07/26 02:13:59;;;;;;;;;;;;;;;;;;1024656;28;19910;-86
2021/07/26 02:14:29;;;;;;;;;;;;;;;;;;1025821;29;19945;-84
2021/07/26 02:15:00;;;;;;;;;;;;;;;;;;1022831;29;19919;-83
2021/07/26 02:15:31;;;;;;;;;;;;;;;;;;1019230;29;19922;-85
2021/07/26 02:16:01;;;;;;;;;;;;;;;;;;1021070;29;20017;-83
2021/07/26 02:16:31;;;;;;;;;;;;;;;;;;1024971;28;19914;-83
2021/07/26 02:17:01;;;;;;;;;;;;;;;;;;1029458;28;19910;-88
2021/07/26 02:17:32;;;;;;;;;;;;;;;;;;1033712;28;19905;-86
2021/07/26 02:18:02;;;;;;;;;;;;;;;;;;1034940;28;19906;-83
2021/07/26 02:18:32;;;;;;;;;;;;;;;;;;1034253;28;20004;-85
2021/07/26 02:19:03;;;;;;;;;;;;;;;;;;1034904;28;19909;-84
2021/07/26 02:19:33;;;;;;;;;;;;;;;;;;1031141;28;19910;-86
2021/07/26 02:20:04;;;;;;;;;;;;;;;;;;1029958;28;19910;-85
2021/07/26 02:20:34;;;;;;;;;;;;;;;;;;1029315;28;20351;-87
2021/07/26 02:21:04;;;;;;;;;;;;;;;;;;1029828;28;19910;-85
2021/07/26 02:21:35;;;;;;;;;;;;;;;;;;1029755;28;19910;-87
2021/07/26 02:22:05;;;;;;;;;;;;;;;;;;1033649;28;19993;-87
2021/07/26 02:22:35;;;;;;;;;;;;;;;;;;1033744;28;20000;-87
2021/07/26 02:23:05;;;;;;;;;;;;;;;;;;1033552;28;19909;-87
2021/07/26 02:23:36;;;;;;;;;;;;;;;;;;1029483;28;20076;-87
2021/07/26 02:24:07;;;;;;;;;;;;;;;;;;1025580;29;20016;-86
2021/07/26 02:24:38;;;;;;;;;;;;;;;;;;1025558;28;19911;-87
2021/07/26 02:25:08;;;;;;;;;;;;;;;;;;1022124;28;19918;-87
2021/07/26 02:25:38;;;;;;;;;;;;;;;;;;1029689;28;20031;-86
2021/07/26 02:26:08;;;;;;;;;;;;;;;;;;1033701;28;19906;-85
2021/07/26 02:26:39;;;;;;;;;;;;;;;;;;1029558;28;19910;-85
2021/07/26 02:27:09;;;;;;;;;;;;;;;;;;1029587;28;19918;-87
2021/07/26 02:27:39;;;;;;;;;;;;;;;;;;1025531;28;19915;-84
2021/07/26 02:28:09;;;;;;;;;;;;;;;;;;1021685;29;20014;-88
2021/07/26 02:28:40;;;;;;;;;;;;;;;;;;1025643;28;20315;-85
2021/07/26 02:29:11;;;;;;;;;;;;;;;;;;1021721;28;20377;-88
2021/07/26 02:29:41;;;;;;;;;;;;;;;;;;1021739;29;19911;-87
2021/07/26 02:30:11;;;;;;;;;;;;;;;;;;1017729;29;19919;-87
2021/07/26 02:30:41;;;;;;;;;;;;;;;;;;1021592;29;19911;-86
2021/07/26 02:31:12;;;;;;;;;;;;;;;;;;1021565;29;19997;-88
2021/07/26 02:31:42;;;;;;;;;;;;;;;;;;1021585;29;19903;-87
2021/07/26 02:32:12;;;;;;;;;;;;;;;;;;1021804;29;19930;-84
2021/07/26 02:32:43;;;;;;;;;;;;;;;;;;1025436;29;19959;-86
2021/07/26 02:33:13;;;;;;;;;;;;;;;;;;1025852;29;19914;-86
2021/07/26 02:33:43;;;;;;;;;;;;;;;;;;1029932;28;20342;-86
2021/07/26 02:34:13;;;;;;;;;;;;;;;;;;1029677;28;19977;-86
2021/07/26 02:34:43;;;;;;;;;;;;;;;;;;1025805;28;19921;-84
2021/07/26 02:35:14;;;;;;;;;;;;;;;;;;1025684;29;19959;-84
2021/07/26 02:35:44;;;;;;;;;;;;;;;;;;1033652;28;20288;-89
2021/07/26 02:36:14;;;;;;;;;;;;;;;;;;1029665;28;19941;-84
2021/07/26 02:36:44;;;;;;;;;;;;;;;;;;1029611;28;19962;-85
2021/07/26 02:37:15;;;;;;;;;;;;;;;;;;1029487;28;19914;-86
2021/07/26 02:37:45;;;;;;;;;;;;;;;;;;1017774;29;19907;-84
2021/07/26 02:38:15;;;;;;;;;;;;;;;;;;1025953;29;19981;-83
2021/07/26 02:38:45;;;;;;;;;;;;;;;;;;1026653;28;20308;-85
2021/07/26 02:39:16;;;;;;;;;;;;;;;;;;1026427;29;19907;-85
2021/07/26 02:39:46;;;;;;;;;;;;;;;;;;1034567;28;19913;-85
2021/07/26 02:40:16;;;;;;;;;;;;;;;;;;1034701;28;20442;-87
2021/07/26 02:40:46;;;;;;;;;;;;;;;;;;1034243;28;19952;-84
2021/07/26 02:41:17;;;;;;;;;;;;;;;;;;1030442;28;20368;-84
2021/07/26 02:41:47;;;;;;;;;;;;;;;;;;1026645;28;19907;-85
2021/07/26 02:42:17;;;;;;;;;;;;;;;;;;1018933;29;19915;-85
2021/07/26 02:42:48;;;;;;;;;;;;;;;;;;1025854;29;19962;-86
2021/07/26 02:43:18;;;;;;;;;;;;;;;;;;1029954;28;20001;-86
2021/07/26 02:43:48;;;;;;;;;;;;;;;;;;1030008;28;19957;-85
2021/07/26 02:44:18;;;;;;;;;;;;;;;;;;1029864;28;19906;-84
2021/07/26 02:44:49;;;;;;;;;;;;;;;;;;1030004;28;19907;-86
2021/07/26 02:45:19;;;;;;;;;;;;;;;;;;1034105;28;19906;-84
2021/07/26 02:45:49;;;;;;;;;;;;;;;;;;1037878;28;19905;-84
2021/07/26 02:46:20;;;;;;;;;;;;;;;;;;1033697;28;19960;-85
2021/07/26 02:46:50;;;;;;;;;;;;;;;;;;1033723;28;19914;-87
2021/07/26 02:47:20;;;;;;;;;;;;;;;;;;1033798;28;19942;-86
2021/07/26 02:47:50;;;;;;;;;;;;;;;;;;1033617;28;19906;-86
2021/07/26 02:48:21;;;;;;;;;;;;;;;;;;1033817;28;20405;-86
2021/07/26 02:48:51;;;;;;;;;;;;;;;;;;1033498;28;19906;-88
2021/07/26 02:49:21;;;;;;;;;;;;;;;;;;1029788;28;19910;-86
2021/07/26 02:49:51;;;;;;;;;;;;;;;;;;1029933;28;20410;-85
2021/07/26 02:50:26;;;;;;;;;;;;;;;;;;1033905;28;19905;-85
2021/07/26 02:50:56;;;;;;;;;;;;;;;;;;1033886;28;19910;-84
2021/07/26 02:51:26;;;;;;;;;;;;;;;;;;1033926;28;19934;-86
2021/07/26 02:51:57;;;;;;;;;;;;;;;;;;1029700;28;19988;-85
2021/07/26 02:52:27;;;;;;;;;;;;;;;;;;1025800;28;19911;-85
2021/07/26 02:52:57;;;;;;;;;;;;;;;;;;1025919;29;19906;-86
2021/07/26 02:53:27;;;;;;;;;;;;;;;;;;1017771;29;20377;-86
2021/07/26 02:53:58;;;;;;;;;;;;;;;;;;1021632;29;19982;-85
2021/07/26 02:54:28;;;;;;;;;;;;;;;;;;1025790;28;19911;-86
2021/07/26 02:54:58;;;;;;;;;;;;;;;;;;1026046;29;19910;-85
2021/07/26 02:55:29;;;;;;;;;;;;;;;;;;1029697;28;19910;-84
2021/07/26 02:55:59;;;;;;;;;;;;;;;;;;1025917;28;19911;-84
2021/07/26 02:56:29;;;;;;;;;;;;;;;;;;1022199;29;19946;-84
2021/07/26 02:57:00;;;;;;;;;;;;;;;;;;1022027;29;19914;-85
2021/07/26 02:57:30;;;;;;;;;;;;;;;;;;1017898;29;19911;-87
2021/07/26 02:58:00;;;;;;;;;;;;;;;;;;1014130;29;19911;-87
2021/07/26 02:58:30;;;;;;;;;;;;;;;;;;1017841;29;19946;-87
2021/07/26 02:59:01;;;;;;;;;;;;;;;;;;1017702;29;19919;-86
2021/07/26 02:59:31;;;;;;;;;;;;;;;;;;1013957;29;20282;-86
2021/07/26 03:00:01;;;;;;;;;;;;;;;;;;1022193;29;20001;-85
2021/07/26 03:00:31;;;;;;;;;;;;;;;;;;1022531;29;20010;-86
2021/07/26 03:01:01;;;;;;;;;;;;;;;;;;1026758;29;19938;-86
2021/07/26 03:01:32;;;;;;;;;;;;;;;;;;1018360;29;19933;-85
2021/07/26 03:02:03;;;;;;;;;;;;;;;;;;1026250;28;19917;-85
2021/07/26 03:02:33;;;;;;;;;;;;;;;;;;1029671;28;19972;-86
2021/07/26 03:03:03;;;;;;;;;;;;;;;;;;1029895;28;20001;-85
2021/07/26 03:03:33;;;;;;;;;;;;;;;;;;1033909;28;19909;-84
2021/07/26 03:04:04;;;;;;;;;;;;;;;;;;1033906;28;20004;-84
2021/07/26 03:04:34;;;;;;;;;;;;;;;;;;1029705;28;19945;-84
2021/07/26 03:05:05;;;;;;;;;;;;;;;;;;1030019;28;20348;-84
2021/07/26 03:05:35;;;;;;;;;;;;;;;;;;1025713;29;19917;-85
2021/07/26 03:06:05;;;;;;;;;;;;;;;;;;1028108;28;20005;-89
2021/07/26 03:06:35;;;;;;;;;;;;;;;;;;1033889;28;19906;-84
2021/07/26 03:07:06;;;;;;;;;;;;;;;;;;1026134;28;19910;-85
2021/07/26 03:07:36;;;;;;;;;;;;;;;;;;1037147;28;19906;-85
2021/07/26 03:08:06;;;;;;;;;;;;;;;;;;1029734;28;20000;-85
2021/07/26 03:08:37;;;;;;;;;;;;;;;;;;1021947;28;20014;-85
2021/07/26 03:09:07;;;;;;;;;;;;;;;;;;1024582;28;19910;-85
2021/07/26 03:09:37;;;;;;;;;;;;;;;;;;1025774;29;19910;-84
2021/07/26 03:10:08;;;;;;;;;;;;;;;;;;1025973;28;19919;-84
2021/07/26 03:10:38;;;;;;;;;;;;;;;;;;1031277;28;19906;-85
2021/07/26 03:11:11;;;;;;;;;;;;;;;;;;1029970;28;20005;-86
2021/07/26 03:11:41;;;;;;;;;;;;;;;;;;1029902;28;19910;-83
2021/07/26 03:12:12;;;;;;;;;;;;;;;;;;1027826;28;20010;-85
2021/07/26 03:12:42;;;;;;;;;;;;;;;;;;1023295;28;19929;-85
2021/07/26 03:13:12;;;;;;;;;;;;;;;;;;1021921;29;19914;-86
2021/07/26 03:13:42;;;;;;;;;;;;;;;;;;1017985;29;20397;-83
2021/07/26 03:14:13;;;;;;;;;;;;;;;;;;1021187;29;19907;-86
2021/07/26 03:14:43;;;;;;;;;;;;;;;;;;1025824;29;19910;-85
2021/07/26 03:15:13;;;;;;;;;;;;;;;;;;1021759;29;19915;-86
2021/07/26 03:15:43;;;;;;;;;;;;;;;;;;1022879;28;19918;-85
2021/07/26 03:16:14;;;;;;;;;;;;;;;;;;1025761;29;19913;-84
2021/07/26 03:16:44;;;;;;;;;;;;;;;;;;1021771;29;20001;-85
2021/07/26 03:17:14;;;;;;;;;;;;;;;;;;1025660;29;19907;-86
2021/07/26 03:17:44;;;;;;;;;;;;;;;;;;1025855;28;19910;-84
2021/07/26 03:18:15;;;;;;;;;;;;;;;;;;1025563;29;19913;-84
2021/07/26 03:18:45;;;;;;;;;;;;;;;;;;1025715;29;19907;-86
2021/07/26 03:19:15;;;;;;;;;;;;;;;;;;1025509;28;19960;-85
2021/07/26 03:19:45;;;;;;;;;;;;;;;;;;1021630;28;19907;-85
2021/07/26 03:20:16;;;;;;;;;;;;;;;;;;1025626;29;19926;-84
2021/07/26 03:20:46;;;;;;;;;;;;;;;;;;1026728;28;19906;-84
2021/07/26 03:21:16;;;;;;;;;;;;;;;;;;1029633;28;20444;-84
2021/07/26 03:21:47;;;;;;;;;;;;;;;;;;1037901;28;19913;-86
2021/07/26 03:22:17;;;;;;;;;;;;;;;;;;1037614;28;19906;-85
2021/07/26 03:22:47;;;;;;;;;;;;;;;;;;1034075;28;19906;-85
2021/07/26 03:23:17;;;;;;;;;;;;;;;;;;1034060;28;20283;-86
2021/07/26 03:23:48;;;;;;;;;;;;;;;;;;1038702;28;19945;-85
2021/07/26 03:24:19;;;;;;;;;;;;;;;;;;1033846;28;19961;-84
2021/07/26 03:24:49;;;;;;;;;;;;;;;;;;1029497;28;19918;-84
2021/07/26 03:25:20;;;;;;;;;;;;;;;;;;1029313;28;20035;-85
2021/07/26 03:25:50;;;;;;;;;;;;;;;;;;1020751;28;19911;-81
2021/07/26 03:26:21;;;;;;;;;;;;;;;;;;1024188;29;20405;-81
2021/07/26 03:26:54;;;;;;;;;;;;;;;;;;1020492;29;19975;-82
2021/07/26 03:27:27;;;;;;;;;;;;;;;;;;1020521;29;19915;-81
2021/07/26 03:27:58;;;;;;;;;;;;;;;;;;1024235;29;20270;-82
2021/07/26 03:28:28;;;;;;;;;;;;;;;;;;1022829;29;20009;-82
2021/07/26 03:28:58;;;;;;;;;;;;;;;;;;1026143;28;19914;-82
2021/07/26 03:29:29;;;;;;;;;;;;;;;;;;1021957;29;20404;-82